createdAt,value
2019-06-01T00:00:19.384Z,99.90
2019-06-01T00:02:56.096Z,99.90
2019-06-01T00:05:25.019Z,99.90
2019-06-01T00:07:55.817Z,99.90
2019-06-01T00:10:27.685Z,99.90
2019-06-01T00:12:59.681Z,99.90
2019-06-01T00:15:30.642Z,99.90
2019-06-01T00:18:01.479Z,99.90
2019-06-01T00:20:33.348Z,99.90
2019-06-01T00:23:05.613Z,99.90
2019-06-01T00:25:36.545Z,99.90
2019-06-01T00:28:08.405Z,99.90
2019-06-01T00:30:39.343Z,99.90
2019-06-01T00:33:11.779Z,99.90
2019-06-01T00:35:43.499Z,99.90
2019-06-01T00:38:14.616Z,99.90
2019-06-01T00:40:45.844Z,99.90
2019-06-01T00:43:17.003Z,99.90
2019-06-01T00:45:48.573Z,99.90
2019-06-01T00:48:19.651Z,99.90
2019-06-01T00:50:51.032Z,99.90
2019-06-01T00:53:23.185Z,99.90
2019-06-01T00:55:53.953Z,99.90
2019-06-01T00:58:24.779Z,99.90
2019-06-01T01:00:55.723Z,99.90
2019-06-01T01:03:27.783Z,99.90
2019-06-01T01:05:58.787Z,99.90
2019-06-01T01:08:29.659Z,99.90
2019-06-01T01:11:00.495Z,99.90
2019-06-01T01:13:31.301Z,99.90
2019-06-01T01:16:02.166Z,99.90
2019-06-01T01:18:33.103Z,99.90
2019-06-01T01:21:04.004Z,99.90
2019-06-01T01:23:34.884Z,99.90
2019-06-01T01:26:05.816Z,99.90
2019-06-01T01:28:36.547Z,99.90
2019-06-01T01:31:13.856Z,99.90
2019-06-01T01:33:41.045Z,99.90
2019-06-01T01:36:11.819Z,99.90
2019-06-01T01:38:42.756Z,99.90
2019-06-01T01:41:13.592Z,99.90
2019-06-01T01:43:45.867Z,99.90
2019-06-01T01:46:16.601Z,99.90
2019-06-01T01:48:47.533Z,99.90
2019-06-01T01:51:18.577Z,99.90
2019-06-01T01:53:50.782Z,99.90
2019-06-01T01:56:21.677Z,99.90
2019-06-01T01:58:52.545Z,99.90
2019-06-01T02:01:23.474Z,99.90
2019-06-01T02:03:57.283Z,99.90
2019-06-01T02:06:29.304Z,99.90
2019-06-01T02:09:01.791Z,99.90
2019-06-01T02:11:34.344Z,99.90
2019-06-01T02:14:06.418Z,99.90
2019-06-01T02:16:37.372Z,99.90
2019-06-01T02:19:08.246Z,99.90
2019-06-01T02:21:39.113Z,99.90
2019-06-01T02:24:10.089Z,99.90
2019-06-01T02:26:41.023Z,99.90
2019-06-01T02:29:12.024Z,99.90
2019-06-01T02:31:43.061Z,99.90
2019-06-01T02:34:15.372Z,99.90
2019-06-01T02:36:46.211Z,99.90
2019-06-01T02:39:17.411Z,99.90
2019-06-01T02:41:48.773Z,99.90
2019-06-01T02:44:21.286Z,99.90
2019-06-01T02:46:52.219Z,99.90
2019-06-01T02:49:23.104Z,99.90
2019-06-01T02:51:55.063Z,99.90
2019-06-01T02:54:26.106Z,99.90
2019-06-01T02:56:57.891Z,99.90
2019-06-01T02:59:28.949Z,99.90
2019-06-01T03:02:06.720Z,99.90
2019-06-01T03:04:33.946Z,99.90
2019-06-01T03:07:06.807Z,99.90
2019-06-01T03:09:39.944Z,99.90
2019-06-01T03:12:13.033Z,99.90
2019-06-01T03:14:47.249Z,99.90
2019-06-01T03:17:20.055Z,99.90
2019-06-01T03:19:52.566Z,99.90
2019-06-01T03:22:25.428Z,99.90
2019-06-01T03:25:00.408Z,99.90
2019-06-01T03:27:32.998Z,99.90
2019-06-01T03:30:09.822Z,99.90
2019-06-01T03:32:40.918Z,99.90
2019-06-01T03:35:13.314Z,99.90
2019-06-01T03:37:44.077Z,99.90
2019-06-01T03:40:23.559Z,99.90
2019-06-01T03:42:47.459Z,99.90
2019-06-01T03:45:18.293Z,99.90
2019-06-01T03:47:49.231Z,99.90
2019-06-01T03:50:21.398Z,99.90
2019-06-01T03:52:52.290Z,99.90
2019-06-01T03:55:23.170Z,99.90
2019-06-01T03:57:55.318Z,99.90
2019-06-01T04:00:27.402Z,99.90
2019-06-01T04:02:58.306Z,99.90
2019-06-01T04:05:29.277Z,99.90
2019-06-01T04:08:01.264Z,99.90
2019-06-01T04:10:33.321Z,99.90
2019-06-01T04:13:04.118Z,99.90
2019-06-01T04:15:35.282Z,99.90
2019-06-01T04:18:08.057Z,99.90
2019-06-01T04:20:40.442Z,99.90
2019-06-01T04:23:12.395Z,99.90
2019-06-01T04:25:43.538Z,99.90
2019-06-01T04:28:14.375Z,99.90
2019-06-01T04:30:47.731Z,99.90
2019-06-01T04:33:18.810Z,99.90
2019-06-01T04:35:49.556Z,99.90
2019-06-01T04:38:20.550Z,99.90
2019-06-01T04:40:54.161Z,99.90
2019-06-01T04:43:24.917Z,99.90
2019-06-01T04:45:55.855Z,99.90
2019-06-01T04:48:26.793Z,99.90
2019-06-01T04:50:59.793Z,99.90
2019-06-01T04:53:30.717Z,99.90
2019-06-01T04:56:01.552Z,99.90
2019-06-01T04:58:32.491Z,99.90
2019-06-01T05:01:05.453Z,99.90
2019-06-01T05:03:36.313Z,99.90
2019-06-01T05:06:07.291Z,99.90
2019-06-01T05:08:38.290Z,99.90
2019-06-01T05:11:10.226Z,99.90
2019-06-01T05:13:41.739Z,99.90
2019-06-01T05:16:13.423Z,99.90
2019-06-01T05:18:46.138Z,99.90
2019-06-01T05:21:18.085Z,99.90
2019-06-01T05:23:48.909Z,99.90
2019-06-01T05:26:20.789Z,99.90
2019-06-01T05:28:51.659Z,99.90
2019-06-01T05:31:25.336Z,99.90
2019-06-01T05:33:56.082Z,99.90
2019-06-01T05:36:27.004Z,99.90
2019-06-01T05:38:57.737Z,99.90
2019-06-01T05:41:29.921Z,99.90
2019-06-01T05:44:00.740Z,99.90
2019-06-01T05:46:32.579Z,99.90
2019-06-01T05:49:03.434Z,99.90
2019-06-01T05:51:35.305Z,99.90
2019-06-01T05:54:06.218Z,99.90
2019-06-01T05:56:37.073Z,99.90
2019-06-01T05:59:07.880Z,99.90
2019-06-01T06:01:38.636Z,99.90
2019-06-01T06:04:09.471Z,99.90
2019-06-01T06:06:40.413Z,99.90
2019-06-01T06:09:11.688Z,99.90
2019-06-01T06:11:43.004Z,99.90
2019-06-01T06:14:15.390Z,99.90
2019-06-01T06:16:46.517Z,99.90
2019-06-01T06:19:21.120Z,99.90
2019-06-01T06:21:51.261Z,99.90
2019-06-01T06:24:22.714Z,99.90
2019-06-01T06:26:54.646Z,99.90
2019-06-01T06:29:25.427Z,99.90
2019-06-01T06:31:56.344Z,99.90
2019-06-01T06:34:27.180Z,99.90
2019-06-01T06:36:58.117Z,99.90
2019-06-01T06:39:29.568Z,99.90
2019-06-01T06:42:00.420Z,99.90
2019-06-01T06:44:31.348Z,99.90
2019-06-01T06:47:02.280Z,99.90
2019-06-01T06:49:34.422Z,99.90
2019-06-01T06:52:05.303Z,99.90
2019-06-01T06:54:36.117Z,99.90
2019-06-01T06:57:07.261Z,99.90
2019-06-01T06:59:39.837Z,99.90
2019-06-01T07:02:10.707Z,99.90
2019-06-01T07:04:41.588Z,99.90
2019-06-01T07:07:13.191Z,99.90
2019-06-01T07:09:45.230Z,99.90
2019-06-01T07:12:16.165Z,99.90
2019-06-01T07:14:47.026Z,99.90
2019-06-01T07:17:17.899Z,99.90
2019-06-01T07:19:48.774Z,99.90
2019-06-01T07:22:19.773Z,99.90
2019-06-01T07:24:50.959Z,99.90
2019-06-01T07:27:22.030Z,99.90
2019-06-01T07:29:53.960Z,99.90
2019-06-01T07:32:24.735Z,99.90
2019-06-01T07:34:55.697Z,99.90
2019-06-01T07:37:26.780Z,99.90
2019-06-01T07:39:57.814Z,99.90
2019-06-01T07:42:29.492Z,99.90
2019-06-01T07:45:01.540Z,99.90
2019-06-01T07:47:34.006Z,99.90
2019-06-01T07:50:06.785Z,99.90
2019-06-01T07:52:37.959Z,99.90
2019-06-01T07:55:08.978Z,99.90
2019-06-01T07:57:42.888Z,99.90
2019-06-01T08:00:12.436Z,99.90
2019-06-01T08:02:43.882Z,99.90
2019-06-01T08:05:14.875Z,99.90
2019-06-01T08:07:45.963Z,99.90
2019-06-01T08:10:24.855Z,99.90
2019-06-01T08:13:01.058Z,99.90
2019-06-01T08:15:34.546Z,99.90
2019-06-01T08:18:05.339Z,99.90
2019-06-01T08:20:38.218Z,99.90
2019-06-01T08:23:10.133Z,99.90
2019-06-01T08:25:40.943Z,99.90
2019-06-01T08:28:12.162Z,99.90
2019-06-01T08:30:44.306Z,99.90
2019-06-01T08:33:15.572Z,99.90
2019-06-01T08:35:46.313Z,99.90
2019-06-01T08:38:17.268Z,99.90
2019-06-01T08:40:49.110Z,99.90
2019-06-01T08:43:20.093Z,99.90
2019-06-01T08:45:51.082Z,99.90
2019-06-01T08:48:22.019Z,99.90
2019-06-01T08:50:52.843Z,99.90
2019-06-01T08:53:23.827Z,99.90
2019-06-01T08:55:54.935Z,99.90
2019-06-01T08:58:26.212Z,99.90
2019-06-01T09:00:57.187Z,99.90
2019-06-01T09:03:28.160Z,99.90
2019-06-01T09:05:59.055Z,99.90
2019-06-01T09:08:30.918Z,99.90
2019-06-01T09:11:02.929Z,99.90
2019-06-01T09:13:33.857Z,99.90
2019-06-01T09:16:06.243Z,99.90
2019-06-01T09:18:37.223Z,99.90
2019-06-01T09:21:08.078Z,99.90
2019-06-01T09:26:09.316Z,99.90
2019-06-01T09:28:40.202Z,99.90
2019-06-01T09:31:12.472Z,99.90
2019-06-01T09:33:43.410Z,99.90
2019-06-01T09:36:14.348Z,99.90
2019-06-01T09:38:45.022Z,99.90
2019-06-01T09:41:17.608Z,99.90
2019-06-01T09:43:48.679Z,99.90
2019-06-01T09:46:19.637Z,99.90
2019-06-01T09:48:51.602Z,99.90
2019-06-01T09:51:23.876Z,99.50
2019-06-01T09:53:54.703Z,99.60
2019-06-01T09:56:25.643Z,99.90
2019-06-01T09:58:56.379Z,99.00
2019-06-01T10:01:28.181Z,99.90
2019-06-01T10:03:59.117Z,97.70
2019-06-01T10:06:30.383Z,97.00
2019-06-01T10:09:01.356Z,97.90
2019-06-01T10:11:34.297Z,95.70
2019-06-01T10:14:05.597Z,95.30
2019-06-01T10:16:39.003Z,96.20
2019-06-01T10:19:10.027Z,96.80
2019-06-01T10:21:42.302Z,95.40
2019-06-01T10:24:13.310Z,95.20
2019-06-01T10:26:44.095Z,96.30
2019-06-01T10:29:14.981Z,95.10
2019-06-01T10:31:47.142Z,95.50
2019-06-01T10:34:17.907Z,94.60
2019-06-01T10:36:48.822Z,96.00
2019-06-01T10:39:19.900Z,96.30
2019-06-01T10:41:53.111Z,95.70
2019-06-01T10:44:23.884Z,95.70
2019-06-01T10:46:55.175Z,94.70
2019-06-01T10:49:26.046Z,93.10
2019-06-01T10:51:57.030Z,94.40
2019-06-01T10:54:27.975Z,96.80
2019-06-01T10:56:58.804Z,97.80
2019-06-01T10:59:29.846Z,97.90
2019-06-01T11:02:01.809Z,98.30
2019-06-01T11:04:32.848Z,98.00
2019-06-01T11:07:03.994Z,98.30
2019-06-01T11:09:34.932Z,99.00
2019-06-01T11:12:07.278Z,96.80
2019-06-01T11:14:39.074Z,94.40
2019-06-01T11:17:11.224Z,95.20
2019-06-01T11:19:42.123Z,92.00
2019-06-01T11:22:14.330Z,92.10
2019-06-01T11:24:45.298Z,92.60
2019-06-01T11:27:16.179Z,91.50
2019-06-01T11:29:51.290Z,91.80
2019-06-01T11:32:20.972Z,90.70
2019-06-01T11:34:51.786Z,86.90
2019-06-01T11:37:22.538Z,90.30
2019-06-01T11:39:53.428Z,90.60
2019-06-01T11:42:27.999Z,88.90
2019-06-01T11:44:59.172Z,87.60
2019-06-01T11:47:29.955Z,89.10
2019-06-01T11:50:01.927Z,90.50
2019-06-01T11:52:34.947Z,82.30
2019-06-01T11:55:09.322Z,88.30
2019-06-01T11:57:41.482Z,86.20
2019-06-01T12:00:14.119Z,85.30
2019-06-01T12:02:46.300Z,87.80
2019-06-01T12:05:17.254Z,87.20
2019-06-01T12:07:49.633Z,81.00
2019-06-01T12:10:20.481Z,84.10
2019-06-01T12:12:52.443Z,81.90
2019-06-01T12:15:26.616Z,79.20
2019-06-01T12:17:56.079Z,82.70
2019-06-01T12:20:27.049Z,79.90
2019-06-01T12:22:57.811Z,80.40
2019-06-01T12:25:28.640Z,81.30
2019-06-01T12:27:59.480Z,80.70
2019-06-01T12:30:30.365Z,76.60
2019-06-01T12:33:01.242Z,77.90
2019-06-01T12:35:32.115Z,80.60
2019-06-01T12:38:06.928Z,80.30
2019-06-01T12:40:35.323Z,79.90
2019-06-01T12:43:06.258Z,76.60
2019-06-01T12:45:37.106Z,75.10
2019-06-01T12:48:08.083Z,75.20
2019-06-01T12:50:39.981Z,81.70
2019-06-01T12:53:13.597Z,80.30
2019-06-01T12:55:45.221Z,78.70
2019-06-01T12:58:16.872Z,80.20
2019-06-01T13:00:48.472Z,79.90
2019-06-01T13:03:20.350Z,74.60
2019-06-01T13:05:51.919Z,73.90
2019-06-01T13:08:22.876Z,75.60
2019-06-01T13:10:53.707Z,75.60
2019-06-01T13:13:27.005Z,80.20
2019-06-01T13:15:58.444Z,78.70
2019-06-01T13:18:29.949Z,75.90
2019-06-01T13:21:01.473Z,78.80
2019-06-01T13:23:35.075Z,80.20
2019-06-01T13:26:06.545Z,76.90
2019-06-01T13:28:38.510Z,78.60
2019-06-01T13:31:09.850Z,77.70
2019-06-01T13:33:42.223Z,80.10
2019-06-01T13:36:13.739Z,77.60
2019-06-01T13:38:44.857Z,79.80
2019-06-01T13:41:15.958Z,75.90
2019-06-01T13:43:51.495Z,77.50
2019-06-01T13:46:22.195Z,78.50
2019-06-01T13:48:54.203Z,80.00
2019-06-01T13:51:25.128Z,76.70
2019-06-01T13:53:57.131Z,76.30
2019-06-01T13:56:28.321Z,78.50
2019-06-01T13:59:00.087Z,76.00
2019-06-01T14:01:31.556Z,77.60
2019-06-01T14:04:04.064Z,77.20
2019-06-01T14:06:35.479Z,76.90
2019-06-01T14:09:07.813Z,76.50
2019-06-01T14:11:40.013Z,76.80
2019-06-01T14:14:11.452Z,76.30
2019-06-01T14:16:43.183Z,78.60
2019-06-01T14:19:15.023Z,76.70
2019-06-01T14:21:47.626Z,74.90
2019-06-01T14:24:20.213Z,78.70
2019-06-01T14:26:52.356Z,77.50
2019-06-01T14:29:23.837Z,75.30
2019-06-01T14:31:55.816Z,75.40
2019-06-01T14:34:28.383Z,75.20
2019-06-01T14:36:59.531Z,76.40
2019-06-01T14:39:31.019Z,78.00
2019-06-01T14:42:02.510Z,76.60
2019-06-01T14:44:35.850Z,78.70
2019-06-01T14:47:07.325Z,78.60
2019-06-01T14:49:38.190Z,78.40
2019-06-01T14:52:09.050Z,79.30
2019-06-01T14:54:43.224Z,77.50
2019-06-01T14:57:16.301Z,77.20
2019-06-01T14:59:56.255Z,77.10
2019-06-01T15:02:27.623Z,81.50
2019-06-01T15:04:58.893Z,79.60
2019-06-01T15:07:30.168Z,78.60
2019-06-01T15:10:01.887Z,80.90
2019-06-01T15:12:34.027Z,78.70
2019-06-01T15:15:09.965Z,80.10
2019-06-01T15:17:41.490Z,83.30
2019-06-01T15:20:13.325Z,82.30
2019-06-01T15:22:44.637Z,83.00
2019-06-01T15:25:16.051Z,82.90
2019-06-01T15:27:47.443Z,80.80
2019-06-01T15:30:18.898Z,85.40
2019-06-01T15:32:51.890Z,81.80
2019-06-01T15:35:22.866Z,83.50
2019-06-01T15:37:58.380Z,83.70
2019-06-01T15:40:26.123Z,83.30
2019-06-01T15:42:57.358Z,82.30
2019-06-01T15:45:29.239Z,84.80
2019-06-01T15:48:00.630Z,83.70
2019-06-01T15:50:32.120Z,82.50
2019-06-01T15:53:03.560Z,84.00
2019-06-01T15:55:34.452Z,81.90
2019-06-01T15:58:05.382Z,83.80
2019-06-01T16:00:36.324Z,81.10
2019-06-01T16:03:07.126Z,85.20
2019-06-01T16:05:38.096Z,84.70
2019-06-01T16:08:08.976Z,84.00
2019-06-01T16:10:39.868Z,83.40
2019-06-01T16:13:10.579Z,84.00
2019-06-01T16:15:41.492Z,83.80
2019-06-01T16:18:12.755Z,85.00
2019-06-01T16:20:43.823Z,84.40
2019-06-01T16:23:17.496Z,81.00
2019-06-01T16:26:01.525Z,81.20
2019-06-01T16:28:21.144Z,84.10
2019-06-01T16:30:52.081Z,85.20
2019-06-01T16:33:24.500Z,84.60
2019-06-01T16:35:56.983Z,82.60
2019-06-01T16:38:28.276Z,82.90
2019-06-01T16:40:59.419Z,83.30
2019-06-01T16:43:33.650Z,82.30
2019-06-01T16:46:06.093Z,84.60
2019-06-01T16:48:39.576Z,83.60
2019-06-01T16:51:11.022Z,83.50
2019-06-01T16:53:43.436Z,81.90
2019-06-01T16:56:14.673Z,84.60
2019-06-01T16:58:46.148Z,84.20
2019-06-01T17:01:17.343Z,83.20
2019-06-01T17:03:51.510Z,84.10
2019-06-01T17:06:23.312Z,87.00
2019-06-01T17:08:54.671Z,87.80
2019-06-01T17:11:26.140Z,89.50
2019-06-01T17:13:56.883Z,87.70
2019-06-01T17:16:27.650Z,90.10
2019-06-01T17:18:58.982Z,90.90
2019-06-01T17:21:31.165Z,91.70
2019-06-01T17:24:06.110Z,91.50
2019-06-01T17:26:37.500Z,93.30
2019-06-01T17:29:08.856Z,93.20
2019-06-01T17:31:53.563Z,92.60
2019-06-01T17:34:13.868Z,92.80
2019-06-01T17:36:44.734Z,93.10
2019-06-01T17:39:16.559Z,94.00
2019-06-01T17:41:47.426Z,92.30
2019-06-01T17:44:19.790Z,93.70
2019-06-01T17:46:53.989Z,93.30
2019-06-01T17:49:25.365Z,94.30
2019-06-01T17:51:56.542Z,94.80
2019-06-01T17:54:29.030Z,94.00
2019-06-01T17:57:01.050Z,94.30
2019-06-01T17:59:32.388Z,94.50
2019-06-01T18:02:04.139Z,94.40
2019-06-01T18:04:38.430Z,93.10
2019-06-01T18:07:10.330Z,93.20
2019-06-01T18:09:41.583Z,93.40
2019-06-01T18:12:12.341Z,93.20
2019-06-01T18:14:47.322Z,94.60
2019-06-01T18:17:19.125Z,95.10
2019-06-01T18:19:50.235Z,94.90
2019-06-01T18:22:23.237Z,96.40
2019-06-01T18:24:59.217Z,96.60
2019-06-01T18:27:32.061Z,97.30
2019-06-01T18:30:04.730Z,97.30
2019-06-01T18:32:36.708Z,98.50
2019-06-01T18:35:09.422Z,99.50
2019-06-01T18:37:42.043Z,99.50
2019-06-01T18:40:13.996Z,99.90
2019-06-01T18:42:49.528Z,99.20
2019-06-01T18:45:20.871Z,99.90
2019-06-01T18:47:52.368Z,99.90
2019-06-01T18:50:24.303Z,99.90
2019-06-01T18:52:58.255Z,99.90
2019-06-01T18:55:30.713Z,99.90
2019-06-01T18:58:03.927Z,99.90
2019-06-01T19:00:40.149Z,99.90
2019-06-01T19:03:13.591Z,99.90
2019-06-01T19:05:46.446Z,99.90
2019-06-01T19:08:17.313Z,99.90
2019-06-01T19:10:48.952Z,99.90
2019-06-01T19:13:20.545Z,99.90
2019-06-01T19:15:53.062Z,99.90
2019-06-01T19:18:24.342Z,99.90
2019-06-01T19:20:56.305Z,99.90
2019-06-01T19:23:28.438Z,99.90
2019-06-01T19:26:01.075Z,99.90
2019-06-01T19:28:32.359Z,99.90
2019-06-01T19:31:04.097Z,99.90
2019-06-01T19:33:35.976Z,99.90
2019-06-01T19:36:09.370Z,99.90
2019-06-01T19:38:42.039Z,99.90
2019-06-01T19:41:15.540Z,99.90
2019-06-01T19:43:47.551Z,99.90
2019-06-01T19:46:20.925Z,99.90
2019-06-01T19:48:53.658Z,99.90
2019-06-01T19:51:25.856Z,99.90
2019-06-01T19:53:58.582Z,99.90
2019-06-01T19:56:31.124Z,99.90
2019-06-01T19:59:02.609Z,99.90
2019-06-01T20:01:34.737Z,99.90
2019-06-01T20:04:06.556Z,99.90
2019-06-01T20:06:40.568Z,99.90
2019-06-01T20:09:13.016Z,99.90
2019-06-01T20:12:00.567Z,99.90
2019-06-01T20:14:19.193Z,99.90
2019-06-01T20:16:50.209Z,99.90
2019-06-01T20:19:21.884Z,99.90
2019-06-01T20:21:53.451Z,99.90
2019-06-01T20:24:24.433Z,99.90
2019-06-01T20:26:56.504Z,99.90
2019-06-01T20:29:27.793Z,99.90
2019-06-01T20:31:59.501Z,99.90
2019-06-01T20:34:31.171Z,99.90
2019-06-01T20:37:05.372Z,99.90
2019-06-01T20:39:39.438Z,99.90
2019-06-01T20:42:22.109Z,99.90
2019-06-01T20:44:43.510Z,99.90
2019-06-01T20:47:16.633Z,99.90
2019-06-01T20:49:48.702Z,99.90
2019-06-01T20:52:20.930Z,99.90
2019-06-01T20:54:52.182Z,99.90
2019-06-01T20:57:24.349Z,99.90
2019-06-01T20:59:55.897Z,99.90
2019-06-01T21:02:27.035Z,99.90
2019-06-01T21:04:58.183Z,99.90
2019-06-01T21:07:30.559Z,99.90
2019-06-01T21:10:01.536Z,99.90
2019-06-01T21:12:44.933Z,99.90
2019-06-01T21:15:07.299Z,99.90
2019-06-01T21:17:39.917Z,99.90
2019-06-01T21:20:11.558Z,99.90
2019-06-01T21:22:43.126Z,99.90
2019-06-01T21:25:14.734Z,99.90
2019-06-01T21:27:48.223Z,99.90
2019-06-01T21:30:22.580Z,99.90
2019-06-01T21:32:53.862Z,99.90
2019-06-01T21:35:25.548Z,99.90
2019-06-01T21:37:57.681Z,99.90
2019-06-01T21:40:29.243Z,99.90
2019-06-01T21:43:12.827Z,99.90
2019-06-01T21:45:34.034Z,99.90
2019-06-01T21:48:06.507Z,99.90
2019-06-01T21:50:38.678Z,99.90
2019-06-01T21:53:11.563Z,99.90
2019-06-01T21:55:42.985Z,99.90
2019-06-01T21:58:16.483Z,99.90
2019-06-01T22:00:48.516Z,99.90
2019-06-01T22:03:27.095Z,99.90
2019-06-01T22:05:54.360Z,99.90
2019-06-01T22:08:27.495Z,99.90
2019-06-01T22:11:00.905Z,99.90
2019-06-01T22:13:32.091Z,99.90
2019-06-01T22:16:03.272Z,99.90
2019-06-01T22:18:35.622Z,99.90
2019-06-01T22:21:07.300Z,99.90
2019-06-01T22:23:38.393Z,99.90
2019-06-01T22:26:09.468Z,99.90
2019-06-01T22:28:41.597Z,99.90
2019-06-01T22:31:12.675Z,99.90
2019-06-01T22:33:43.717Z,99.90
2019-06-01T22:36:15.098Z,99.90
2019-06-01T22:38:47.432Z,99.90
2019-06-01T22:41:19.811Z,99.90
2019-06-01T22:43:51.155Z,99.90
2019-06-01T22:46:22.345Z,99.90
2019-06-01T22:48:53.439Z,99.90
2019-06-01T22:51:25.023Z,99.90
2019-06-01T22:53:56.469Z,99.90
2019-06-01T22:56:27.576Z,99.90
2019-06-01T23:01:30.589Z,99.90
2019-06-01T23:04:01.634Z,99.90
2019-06-01T23:06:32.563Z,99.90
2019-06-01T23:09:07.693Z,99.90
2019-06-01T23:11:38.740Z,99.90
2019-06-01T23:14:09.988Z,99.90
2019-06-01T23:16:41.277Z,99.90
2019-06-01T23:19:13.503Z,99.90
2019-06-01T23:21:44.595Z,99.90
2019-06-01T23:24:15.627Z,99.90
2019-06-01T23:26:46.830Z,99.90
2019-06-01T23:29:18.275Z,99.90
2019-06-01T23:31:49.421Z,99.90
2019-06-01T23:34:20.359Z,99.90
2019-06-01T23:36:51.795Z,99.90
2019-06-01T23:39:22.793Z,99.90
2019-06-01T23:41:53.695Z,99.90
2019-06-01T23:44:24.851Z,99.90
2019-06-01T23:46:57.016Z,99.90
2019-06-01T23:49:29.252Z,99.90
2019-06-01T23:52:00.201Z,99.90
2019-06-01T23:54:32.427Z,99.90
2019-06-01T23:57:03.819Z,99.90
2019-06-01T23:59:35.546Z,99.90
